createdAt,value
2017-12-27T00:01:37.482Z,8.55
2017-12-27T00:04:17.609Z,6.30
2017-12-27T00:06:57.654Z,9.68
2017-12-27T00:09:37.736Z,10.32
2017-12-27T00:15:14.026Z,6.60
2017-12-27T00:17:54.222Z,7.70
2017-12-27T00:20:34.265Z,6.65
2017-12-27T00:23:14.572Z,7.53
2017-12-27T00:25:54.617Z,4.62
2017-12-27T00:28:34.951Z,6.53
2017-12-27T00:31:27.062Z,12.13
2017-12-27T00:34:01.591Z,7.37
2017-12-27T00:36:35.977Z,7.18
2017-12-27T00:39:10.376Z,9.18
2017-12-27T00:41:44.830Z,3.53
2017-12-27T00:44:19.189Z,9.60
2017-12-27T00:46:53.546Z,6.32
2017-12-27T00:49:28.098Z,8.95
2017-12-27T00:52:02.413Z,9.02
2017-12-27T00:54:36.765Z,7.30
2017-12-27T00:57:12.247Z,7.57
2017-12-27T00:59:46.735Z,10.88
2017-12-27T01:02:21.269Z,10.70
2017-12-27T01:04:55.785Z,13.60
2017-12-27T01:07:30.925Z,10.77
2017-12-27T01:10:05.395Z,10.90
2017-12-27T01:12:40.585Z,11.18
2017-12-27T01:15:15.065Z,8.93
2017-12-27T01:17:49.535Z,9.95
2017-12-27T01:20:24.656Z,9.10
2017-12-27T01:22:59.154Z,7.47
2017-12-27T01:25:33.493Z,11.70
2017-12-27T01:28:07.992Z,10.70
2017-12-27T01:30:43.359Z,15.43
2017-12-27T01:33:17.807Z,9.30
2017-12-27T01:35:52.187Z,9.95
2017-12-27T01:38:26.678Z,7.65
2017-12-27T01:44:08.399Z,8.40
2017-12-27T01:46:42.715Z,8.25
2017-12-27T01:49:17.090Z,9.73
2017-12-27T01:51:51.552Z,8.10
2017-12-27T01:54:25.902Z,12.80
2017-12-27T01:57:00.378Z,8.25
2017-12-27T01:59:35.628Z,8.60
2017-12-27T02:02:10.124Z,6.70
2017-12-27T02:04:44.524Z,13.25
2017-12-27T02:07:18.935Z,11.77
2017-12-27T02:09:53.345Z,12.82
2017-12-27T02:12:27.911Z,8.10
2017-12-27T02:15:02.305Z,10.00
2017-12-27T02:17:36.744Z,10.75
2017-12-27T02:20:11.217Z,7.70
2017-12-27T02:22:45.756Z,8.57
2017-12-27T02:25:20.270Z,6.70
2017-12-27T02:27:54.667Z,10.48
2017-12-27T02:30:29.142Z,13.27
2017-12-27T02:33:03.623Z,6.60
2017-12-27T02:35:38.905Z,10.98
2017-12-27T02:38:13.351Z,6.70
2017-12-27T02:43:52.427Z,12.50
2017-12-27T02:46:27.538Z,7.00
2017-12-27T02:49:02.026Z,6.45
2017-12-27T02:51:36.564Z,6.80
2017-12-27T02:54:11.002Z,8.55
2017-12-27T02:56:45.469Z,4.87
2017-12-27T02:59:19.813Z,7.07
2017-12-27T03:01:54.193Z,5.50
2017-12-27T03:04:28.628Z,5.85
2017-12-27T03:07:03.230Z,4.87
2017-12-27T03:09:37.666Z,5.55
2017-12-27T03:12:12.070Z,5.47
2017-12-27T03:14:46.515Z,4.90
2017-12-27T03:17:20.901Z,6.50
2017-12-27T03:19:55.251Z,8.38
2017-12-27T03:22:29.750Z,8.70
2017-12-27T03:25:05.061Z,6.12
2017-12-27T03:27:39.596Z,11.25
2017-12-27T03:30:13.990Z,5.70
2017-12-27T03:32:48.387Z,5.40
2017-12-27T03:35:22.897Z,6.28
2017-12-27T03:37:57.357Z,5.82
2017-12-27T03:40:31.819Z,5.75
2017-12-27T03:43:06.282Z,8.18
2017-12-27T03:45:40.645Z,6.12
2017-12-27T03:48:15.845Z,7.05
2017-12-27T03:50:50.196Z,4.90
2017-12-27T03:53:24.712Z,4.78
2017-12-27T03:55:59.230Z,3.97
2017-12-27T03:58:33.771Z,8.10
2017-12-27T04:01:08.275Z,5.12
2017-12-27T04:03:42.707Z,4.15
2017-12-27T04:06:17.927Z,6.37
2017-12-27T04:08:52.335Z,3.15
2017-12-27T04:11:27.589Z,2.80
2017-12-27T04:14:02.694Z,2.83
2017-12-27T04:16:37.010Z,6.70
2017-12-27T04:19:11.444Z,5.60
2017-12-27T04:21:45.893Z,5.45
2017-12-27T04:24:20.299Z,2.33
2017-12-27T04:26:55.425Z,5.65
2017-12-27T04:29:29.853Z,3.08
2017-12-27T04:35:08.784Z,5.75
2017-12-27T04:37:43.298Z,4.80
2017-12-27T04:40:17.715Z,2.45
2017-12-27T04:42:52.070Z,7.72
2017-12-27T04:45:26.419Z,2.58
2017-12-27T04:48:00.873Z,2.58
2017-12-27T04:50:35.205Z,2.45
2017-12-27T04:53:09.636Z,2.60
2017-12-27T04:55:44.084Z,3.53
2017-12-27T04:58:19.173Z,4.72
2017-12-27T05:00:53.707Z,3.47
2017-12-27T05:03:28.952Z,3.47
2017-12-27T05:06:03.330Z,2.22
2017-12-27T05:08:37.714Z,2.62
2017-12-27T05:11:12.150Z,5.03
2017-12-27T05:13:46.538Z,2.30
2017-12-27T05:16:20.999Z,8.32
2017-12-27T05:18:55.580Z,2.22
2017-12-27T05:21:30.073Z,4.53
2017-12-27T05:24:04.497Z,5.32
2017-12-27T05:26:38.923Z,2.45
2017-12-27T05:31:54.224Z,3.95
2017-12-27T05:34:28.736Z,3.45
2017-12-27T05:37:03.176Z,2.28
2017-12-27T05:39:37.507Z,3.70
2017-12-27T05:42:11.966Z,3.85
2017-12-27T05:44:46.429Z,2.72
2017-12-27T05:47:20.908Z,6.97
2017-12-27T05:49:55.411Z,3.00
2017-12-27T05:52:30.641Z,1.92
2017-12-27T05:55:05.270Z,4.37
2017-12-27T05:57:39.796Z,2.90
2017-12-27T06:00:14.258Z,3.00
2017-12-27T06:02:48.761Z,5.60
2017-12-27T06:05:23.084Z,2.65
2017-12-27T06:07:57.587Z,6.80
2017-12-27T06:10:32.059Z,2.40
2017-12-27T06:13:06.582Z,5.53
2017-12-27T06:15:40.980Z,1.87
2017-12-27T06:18:15.264Z,2.22
2017-12-27T06:20:49.632Z,4.05
2017-12-27T06:23:24.143Z,2.30
2017-12-27T06:25:58.493Z,3.22
2017-12-27T06:28:33.656Z,3.70
2017-12-27T06:31:08.111Z,2.10
2017-12-27T06:33:42.558Z,2.72
2017-12-27T06:36:16.887Z,3.55
2017-12-27T06:38:52.228Z,2.30
2017-12-27T06:41:26.592Z,2.65
2017-12-27T06:44:01.026Z,2.58
2017-12-27T06:46:36.259Z,2.05
2017-12-27T06:51:52.169Z,3.22
2017-12-27T06:54:26.625Z,2.42
2017-12-27T06:57:01.964Z,4.12
2017-12-27T06:59:36.346Z,2.80
2017-12-27T07:02:10.876Z,4.25
2017-12-27T07:04:45.404Z,1.90
2017-12-27T07:07:19.812Z,4.78
2017-12-27T07:09:54.204Z,2.70
2017-12-27T07:12:28.638Z,2.17
2017-12-27T07:15:03.871Z,2.05
2017-12-27T07:17:38.323Z,1.85
2017-12-27T07:20:12.695Z,5.03
2017-12-27T07:22:47.262Z,3.97
2017-12-27T07:25:21.921Z,5.65
2017-12-27T07:27:56.462Z,2.62
2017-12-27T07:30:31.642Z,2.53
2017-12-27T07:33:06.770Z,2.83
2017-12-27T07:35:41.310Z,4.15
2017-12-27T07:38:15.774Z,4.87
2017-12-27T07:40:50.190Z,3.45
2017-12-27T07:43:24.765Z,7.87
2017-12-27T07:46:00.196Z,2.80
2017-12-27T07:48:34.718Z,3.10
2017-12-27T07:51:09.111Z,2.78
2017-12-27T07:53:44.373Z,5.40
2017-12-27T07:56:18.869Z,5.28
2017-12-27T07:58:53.250Z,3.20
2017-12-27T08:01:28.571Z,3.92
2017-12-27T08:04:02.951Z,9.82
2017-12-27T08:06:37.307Z,6.47
2017-12-27T08:09:11.791Z,5.53
2017-12-27T08:11:47.065Z,2.22
2017-12-27T08:14:21.549Z,3.72
2017-12-27T08:16:55.950Z,2.05
2017-12-27T08:19:30.383Z,3.12
2017-12-27T08:22:05.530Z,5.20
2017-12-27T08:24:39.953Z,2.72
2017-12-27T08:27:14.396Z,3.67
2017-12-27T08:29:48.709Z,6.57
2017-12-27T08:32:23.161Z,2.87
2017-12-27T08:34:57.614Z,3.78
2017-12-27T08:37:32.070Z,3.72
2017-12-27T08:40:06.514Z,1.85
2017-12-27T08:42:40.987Z,4.62
2017-12-27T08:45:15.519Z,1.60
2017-12-27T08:47:49.907Z,5.40
2017-12-27T08:50:24.248Z,12.45
2017-12-27T08:52:58.733Z,2.15
2017-12-27T08:55:33.100Z,3.05
2017-12-27T08:58:08.400Z,2.53
2017-12-27T09:00:42.728Z,2.00
2017-12-27T09:03:17.275Z,2.95
2017-12-27T09:05:51.617Z,3.35
2017-12-27T09:08:26.099Z,2.15
2017-12-27T09:11:00.493Z,4.53
2017-12-27T09:13:35.012Z,4.65
2017-12-27T09:16:09.471Z,3.53
2017-12-27T09:18:43.940Z,7.95
2017-12-27T09:21:19.247Z,9.00
2017-12-27T09:23:53.758Z,4.93
2017-12-27T09:26:28.900Z,3.95
2017-12-27T09:29:03.393Z,2.10
2017-12-27T09:31:38.682Z,2.28
2017-12-27T09:34:13.820Z,2.15
2017-12-27T09:36:49.012Z,1.75
2017-12-27T09:39:23.344Z,2.50
2017-12-27T09:41:57.888Z,3.10
2017-12-27T09:44:32.327Z,2.58
2017-12-27T09:47:06.626Z,6.37
2017-12-27T09:49:40.964Z,4.25
2017-12-27T09:52:15.399Z,5.07
2017-12-27T09:54:49.962Z,2.55
2017-12-27T09:57:24.348Z,3.42
2017-12-27T09:59:58.887Z,4.05
2017-12-27T10:02:33.448Z,4.82
2017-12-27T10:05:07.982Z,3.35
2017-12-27T10:07:42.489Z,1.83
2017-12-27T10:10:16.963Z,3.10
2017-12-27T10:12:51.406Z,2.75
2017-12-27T10:15:25.795Z,1.70
2017-12-27T10:18:01.048Z,4.20
2017-12-27T10:20:35.604Z,3.00
2017-12-27T10:23:10.142Z,2.55
2017-12-27T10:25:44.673Z,1.90
2017-12-27T10:28:19.189Z,10.55
2017-12-27T10:30:53.681Z,1.85
2017-12-27T10:33:28.147Z,6.15
2017-12-27T10:36:02.614Z,2.25
2017-12-27T10:38:37.060Z,2.92
2017-12-27T10:41:11.704Z,2.20
2017-12-27T10:43:46.187Z,2.58
2017-12-27T10:46:20.606Z,2.22
2017-12-27T10:48:55.853Z,7.20
2017-12-27T10:51:30.266Z,2.17
2017-12-27T10:54:04.748Z,1.67
2017-12-27T10:56:39.183Z,1.50
2017-12-27T10:59:13.700Z,2.22
2017-12-27T11:01:48.157Z,4.43
2017-12-27T11:04:22.707Z,1.65
2017-12-27T11:06:57.077Z,2.42
2017-12-27T11:09:31.606Z,2.08
2017-12-27T11:12:06.059Z,12.40
2017-12-27T11:14:40.550Z,2.60
2017-12-27T11:17:15.792Z,5.18
2017-12-27T11:19:50.332Z,3.55
2017-12-27T11:22:24.845Z,1.83
2017-12-27T11:24:59.368Z,2.95
2017-12-27T11:27:33.847Z,3.65
2017-12-27T11:30:08.232Z,5.05
2017-12-27T11:32:42.688Z,2.17
2017-12-27T11:35:17.206Z,2.22
2017-12-27T11:37:51.775Z,2.00
2017-12-27T11:40:26.098Z,3.75
2017-12-27T11:43:00.437Z,5.60
2017-12-27T11:45:34.874Z,6.22
2017-12-27T11:48:09.484Z,2.67
2017-12-27T11:50:43.939Z,2.62
2017-12-27T11:53:18.455Z,4.35
2017-12-27T11:55:53.042Z,2.30
2017-12-27T11:58:27.505Z,6.80
2017-12-27T12:01:02.046Z,3.30
2017-12-27T12:03:36.390Z,2.28
2017-12-27T12:06:10.861Z,2.17
2017-12-27T12:08:45.339Z,3.70
2017-12-27T12:11:19.715Z,6.93
2017-12-27T12:13:54.113Z,3.45
2017-12-27T12:16:28.637Z,4.55
2017-12-27T12:19:03.171Z,3.50
2017-12-27T12:21:37.616Z,2.17
2017-12-27T12:24:12.076Z,2.10
2017-12-27T12:26:47.365Z,4.25
2017-12-27T12:29:21.888Z,2.45
2017-12-27T12:31:57.063Z,2.85
2017-12-27T12:34:31.542Z,2.35
2017-12-27T12:37:05.949Z,3.15
2017-12-27T12:39:40.247Z,3.62
2017-12-27T12:42:14.702Z,5.25
2017-12-27T12:44:49.205Z,2.33
2017-12-27T12:47:23.655Z,4.30
2017-12-27T12:49:58.225Z,1.90
2017-12-27T12:52:33.300Z,4.72
2017-12-27T12:55:08.479Z,2.12
2017-12-27T12:57:42.924Z,2.97
2017-12-27T13:00:18.182Z,6.10
2017-12-27T13:02:52.555Z,2.75
2017-12-27T13:05:27.021Z,3.95
2017-12-27T13:08:01.431Z,3.30
2017-12-27T13:10:35.871Z,2.47
2017-12-27T13:13:10.211Z,2.80
2017-12-27T13:15:44.609Z,4.00
2017-12-27T13:18:18.985Z,1.75
2017-12-27T13:20:53.459Z,2.55
2017-12-27T13:23:27.918Z,3.72
2017-12-27T13:26:02.427Z,2.47
2017-12-27T13:28:36.944Z,2.90
2017-12-27T13:31:11.350Z,3.08
2017-12-27T13:33:45.841Z,2.78
2017-12-27T13:36:20.364Z,2.78
2017-12-27T13:38:54.904Z,2.90
2017-12-27T13:41:29.374Z,2.53
2017-12-27T13:44:03.761Z,2.67
2017-12-27T13:46:38.227Z,3.87
2017-12-27T13:49:12.597Z,3.92
2017-12-27T13:51:47.015Z,5.62
2017-12-27T13:54:21.519Z,2.85
2017-12-27T13:56:56.067Z,2.60
2017-12-27T13:59:30.552Z,3.62
2017-12-27T14:02:05.003Z,3.47
2017-12-27T14:04:39.469Z,3.05
2017-12-27T14:07:13.907Z,3.15
2017-12-27T14:09:48.429Z,2.15
2017-12-27T14:12:22.873Z,3.42
2017-12-27T14:14:57.441Z,2.40
2017-12-27T14:17:31.979Z,2.62
2017-12-27T14:20:06.369Z,2.97
2017-12-27T14:22:40.715Z,3.05
2017-12-27T14:25:15.861Z,2.90
2017-12-27T14:27:51.110Z,3.35
2017-12-27T14:30:25.543Z,5.15
2017-12-27T14:36:07.336Z,8.40
2017-12-27T14:38:41.666Z,5.20
2017-12-27T14:41:16.080Z,3.00
2017-12-27T14:43:50.395Z,3.33
2017-12-27T14:46:25.612Z,4.80
2017-12-27T14:49:00.062Z,3.92
2017-12-27T14:51:34.547Z,3.55
2017-12-27T14:54:09.100Z,3.08
2017-12-27T14:56:43.507Z,2.85
2017-12-27T14:59:17.893Z,8.38
2017-12-27T15:01:53.174Z,5.22
2017-12-27T15:04:27.653Z,3.37
2017-12-27T15:07:02.126Z,4.43
2017-12-27T15:09:36.502Z,3.75
2017-12-27T15:12:10.882Z,3.47
2017-12-27T15:14:45.261Z,6.20
2017-12-27T15:17:20.521Z,6.55
2017-12-27T15:19:54.920Z,4.45
2017-12-27T15:22:29.394Z,4.80
2017-12-27T15:25:03.713Z,3.25
2017-12-27T15:27:38.103Z,9.25
2017-12-27T15:30:12.612Z,4.40
2017-12-27T15:32:46.918Z,4.70
2017-12-27T15:35:21.345Z,2.78
2017-12-27T15:37:55.732Z,3.75
2017-12-27T15:40:30.098Z,3.78
2017-12-27T15:43:04.635Z,4.78
2017-12-27T15:45:39.128Z,3.78
2017-12-27T15:48:13.628Z,3.78
2017-12-27T15:50:47.982Z,3.45
2017-12-27T15:53:23.206Z,5.03
2017-12-27T15:55:57.744Z,5.35
2017-12-27T15:58:32.132Z,4.80
2017-12-27T16:01:06.513Z,4.12
2017-12-27T16:03:40.908Z,3.53
2017-12-27T16:06:15.405Z,6.15
2017-12-27T16:08:49.827Z,4.05
2017-12-27T16:11:24.188Z,7.15
2017-12-27T16:13:58.463Z,3.83
2017-12-27T16:16:32.896Z,5.12
2017-12-27T16:19:07.382Z,5.15
2017-12-27T16:21:42.549Z,6.47
2017-12-27T16:24:16.837Z,5.00
2017-12-27T16:26:51.258Z,4.12
2017-12-27T16:29:25.773Z,4.87
2017-12-27T16:32:00.125Z,6.43
2017-12-27T16:34:34.913Z,4.60
2017-12-27T16:37:09.388Z,4.43
2017-12-27T16:39:44.581Z,4.03
2017-12-27T16:42:19.859Z,4.57
2017-12-27T16:44:54.227Z,3.20
2017-12-27T16:47:29.312Z,3.87
2017-12-27T16:50:03.750Z,3.78
2017-12-27T16:52:38.170Z,3.92
2017-12-27T16:55:12.579Z,6.37
2017-12-27T16:57:47.048Z,4.37
2017-12-27T17:00:21.565Z,4.70
2017-12-27T17:02:56.103Z,7.62
2017-12-27T17:05:30.646Z,4.78
2017-12-27T17:08:05.147Z,5.47
2017-12-27T17:10:39.575Z,4.15
2017-12-27T17:13:14.131Z,5.35
2017-12-27T17:15:48.610Z,4.05
2017-12-27T17:18:23.756Z,4.43
2017-12-27T17:20:58.112Z,4.53
2017-12-27T17:23:33.249Z,6.87
2017-12-27T17:26:07.592Z,4.00
2017-12-27T17:28:42.786Z,5.03
2017-12-27T17:31:17.201Z,5.12
2017-12-27T17:33:51.683Z,4.53
2017-12-27T17:36:26.199Z,7.70
2017-12-27T17:39:00.676Z,4.93
2017-12-27T17:41:35.179Z,7.05
2017-12-27T17:44:09.553Z,5.35
2017-12-27T17:46:43.911Z,6.22
2017-12-27T17:49:18.326Z,4.62
2017-12-27T17:51:52.797Z,5.40
2017-12-27T17:54:27.317Z,5.60
2017-12-27T17:57:01.774Z,5.07
2017-12-27T17:59:36.290Z,8.95
2017-12-27T18:02:10.764Z,5.47
2017-12-27T18:04:45.128Z,5.12
2017-12-27T18:07:20.367Z,8.73
2017-12-27T18:09:54.854Z,7.15
2017-12-27T18:12:29.289Z,8.15
2017-12-27T18:15:04.500Z,14.05
2017-12-27T18:17:38.910Z,11.38
2017-12-27T18:20:13.445Z,5.37
2017-12-27T18:22:47.900Z,9.25
2017-12-27T18:25:22.242Z,6.70
2017-12-27T18:27:56.732Z,7.03
2017-12-27T18:30:31.100Z,8.60
2017-12-27T18:33:05.621Z,8.55
2017-12-27T18:35:40.009Z,5.97
2017-12-27T18:38:15.248Z,6.97
2017-12-27T18:40:49.740Z,7.35
2017-12-27T18:43:25.428Z,6.53
2017-12-27T18:45:59.746Z,6.57
2017-12-27T18:48:34.150Z,6.15
2017-12-27T18:51:08.665Z,9.48
2017-12-27T18:53:43.120Z,7.03
2017-12-27T18:56:17.630Z,8.80
2017-12-27T18:58:52.880Z,9.50
2017-12-27T19:01:27.346Z,6.40
2017-12-27T19:04:01.666Z,5.80
2017-12-27T19:06:36.125Z,8.75
2017-12-27T19:09:10.513Z,7.55
2017-12-27T19:11:44.879Z,8.10
2017-12-27T19:14:20.089Z,8.50
2017-12-27T19:16:54.438Z,9.48
2017-12-27T19:19:28.848Z,6.55
2017-12-27T19:22:03.234Z,23.60
2017-12-27T19:24:37.726Z,8.43
2017-12-27T19:27:12.172Z,9.85
2017-12-27T19:29:47.400Z,17.65
2017-12-27T19:32:21.736Z,7.12
2017-12-27T19:34:56.126Z,12.18
2017-12-27T19:37:30.495Z,7.22
2017-12-27T19:40:04.986Z,8.32
2017-12-27T19:42:39.404Z,7.15
2017-12-27T19:45:13.766Z,8.48
2017-12-27T19:47:48.141Z,8.40
2017-12-27T19:50:22.495Z,9.43
2017-12-27T19:52:56.985Z,8.02
2017-12-27T19:55:31.422Z,6.82
2017-12-27T19:58:05.764Z,11.45
2017-12-27T20:00:40.977Z,6.32
2017-12-27T20:03:16.232Z,15.07
2017-12-27T20:05:51.508Z,8.18
2017-12-27T20:08:25.895Z,8.55
2017-12-27T20:11:00.350Z,6.72
2017-12-27T20:13:34.694Z,9.27
2017-12-27T20:16:09.150Z,8.07
2017-12-27T20:18:43.536Z,15.77
2017-12-27T20:21:18.766Z,6.75
2017-12-27T20:23:53.074Z,7.65
2017-12-27T20:26:27.394Z,8.90
2017-12-27T20:29:02.688Z,7.57
2017-12-27T20:31:36.962Z,8.10
2017-12-27T20:34:11.417Z,8.70
2017-12-27T20:36:45.836Z,6.65
2017-12-27T20:39:20.186Z,5.85
2017-12-27T20:41:55.453Z,6.90
2017-12-27T20:44:31.057Z,7.32
2017-12-27T20:47:05.603Z,6.72
2017-12-27T20:49:40.085Z,5.82
2017-12-27T20:52:14.474Z,8.27
2017-12-27T20:54:49.000Z,7.03
2017-12-27T20:57:23.545Z,8.88
2017-12-27T20:59:57.989Z,6.62
2017-12-27T21:02:33.275Z,9.20
2017-12-27T21:05:08.431Z,7.87
2017-12-27T21:07:42.826Z,9.65
2017-12-27T21:10:17.278Z,8.75
2017-12-27T21:12:51.659Z,7.80
2017-12-27T21:15:26.934Z,8.50
2017-12-27T21:18:01.456Z,8.77
2017-12-27T21:20:35.846Z,9.20
2017-12-27T21:23:10.351Z,8.43
2017-12-27T21:25:44.831Z,9.80
2017-12-27T21:28:19.232Z,11.12
2017-12-27T21:30:53.744Z,10.98
2017-12-27T21:33:28.985Z,9.35
2017-12-27T21:36:04.239Z,10.68
2017-12-27T21:38:38.712Z,10.85
2017-12-27T21:41:13.186Z,9.88
2017-12-27T21:43:47.666Z,9.82
2017-12-27T21:46:22.083Z,11.52
2017-12-27T21:49:02.245Z,10.07
2017-12-27T21:51:36.763Z,10.05
2017-12-27T21:54:11.312Z,10.05
2017-12-27T21:56:45.838Z,11.88
2017-12-27T21:59:27.235Z,11.75
2017-12-27T22:02:01.717Z,11.25
2017-12-27T22:04:36.234Z,13.70
2017-12-27T22:07:10.741Z,14.40
2017-12-27T22:09:45.074Z,11.32
2017-12-27T22:12:19.535Z,11.93
2017-12-27T22:14:53.904Z,13.85
2017-12-27T22:17:28.192Z,10.45
2017-12-27T22:20:02.583Z,14.45
2017-12-27T22:22:37.685Z,9.65
2017-12-27T22:25:12.208Z,10.13
2017-12-27T22:27:46.545Z,12.05
2017-12-27T22:30:21.041Z,9.95
2017-12-27T22:32:55.433Z,10.98
2017-12-27T22:35:29.997Z,10.13
2017-12-27T22:38:04.552Z,10.15
2017-12-27T22:40:39.039Z,11.10
2017-12-27T22:43:14.271Z,18.87
2017-12-27T22:45:48.690Z,11.75
2017-12-27T22:48:23.037Z,11.48
2017-12-27T22:50:57.432Z,10.88
2017-12-27T22:53:31.980Z,10.40
2017-12-27T22:56:06.495Z,11.15
2017-12-27T22:58:40.892Z,13.65
2017-12-27T23:01:15.228Z,11.85
2017-12-27T23:03:49.643Z,9.70
2017-12-27T23:06:24.186Z,12.35
2017-12-27T23:08:58.652Z,11.07
2017-12-27T23:11:33.095Z,13.13
2017-12-27T23:14:07.648Z,10.85
2017-12-27T23:16:42.035Z,9.45
2017-12-27T23:19:16.499Z,9.50
2017-12-27T23:21:50.855Z,10.38
2017-12-27T23:24:25.355Z,10.32
2017-12-27T23:26:59.828Z,16.65
2017-12-27T23:29:34.224Z,10.50
2017-12-27T23:32:09.449Z,11.48
2017-12-27T23:34:44.624Z,9.73
2017-12-27T23:37:19.009Z,12.37
2017-12-27T23:39:53.451Z,10.70
2017-12-27T23:42:27.955Z,13.93
2017-12-27T23:45:02.509Z,13.30
2017-12-27T23:47:36.894Z,15.60
2017-12-27T23:50:11.409Z,9.52
2017-12-27T23:52:45.740Z,10.45
2017-12-27T23:55:20.183Z,9.13
2017-12-27T23:57:55.453Z,12.90
